Time;durP1;ratioP1;P1;durP2;ratioP2;P2;SDS_P1;SDS_P2;PMS_P1;PMS_P2;Temp;Humidity;BMP_temperature;BMP_pressure;BME280_temperature;BME280_humidity;BME280_pressure;Samples;Min_cycle;Max_cycle;Signal;HPM_P1;HPM_P2
2021/08/08 00:01:07;;;;;;;1.00;0.90;;;19.00;99.40;;;;;;6133454;23;20517;-82
2021/08/08 00:03:34;;;;;;;3.17;0.90;;;18.90;99.30;;;;;;6134681;23;21373;-82
2021/08/08 00:06:01;;;;;;;1.60;0.87;;;19.00;99.20;;;;;;6133247;23;20505;-85
2021/08/08 00:08:30;;;;;;;1.73;1.07;;;19.00;99.20;;;;;;6159041;23;20439;-83
2021/08/08 00:10:57;;;;;;;2.00;1.10;;;19.00;99.10;;;;;;6159474;23;20423;-83
2021/08/08 00:13:25;;;;;;;1.70;1.60;;;19.00;99.10;;;;;;6157556;23;20497;-83
2021/08/08 00:15:52;;;;;;;1.27;1.17;;;18.90;99.10;;;;;;6158207;23;20414;-84
2021/08/08 00:18:19;;;;;;;1.40;0.97;;;18.80;99.40;;;;;;6131986;23;20470;-83
2021/08/08 00:20:46;;;;;;;1.53;1.30;;;18.90;99.10;;;;;;6158780;23;20767;-83
2021/08/08 00:23:13;;;;;;;3.33;0.90;;;18.90;99.00;;;;;;6159349;23;20443;-84
2021/08/08 00:25:40;;;;;;;1.30;1.20;;;18.70;99.30;;;;;;6161094;23;20393;-83
2021/08/08 00:28:07;;;;;;;1.40;1.30;;;18.80;99.50;;;;;;6140756;23;20488;-84
2021/08/08 00:30:34;;;;;;;1.80;1.40;;;19.00;98.90;;;;;;6166287;23;20398;-82
2021/08/08 00:33:00;;;;;;;1.43;1.17;;;19.10;98.40;;;;;;6167407;23;20423;-83
2021/08/08 00:35:27;;;;;;;2.30;1.43;;;18.90;98.60;;;;;;6160736;23;20580;-82
2021/08/08 00:37:54;;;;;;;1.90;1.37;;;18.80;98.80;;;;;;6130777;23;20453;-82
2021/08/08 00:40:21;;;;;;;1.30;1.20;;;18.80;98.80;;;;;;6158950;23;20518;-83
2021/08/08 00:42:48;;;;;;;2.20;1.30;;;18.80;99.00;;;;;;6159058;23;20449;-82
2021/08/08 00:45:16;;;;;;;3.80;1.40;;;18.90;98.40;;;;;;6156236;23;20387;-82
2021/08/08 00:47:43;;;;;;;1.87;1.40;;;19.00;98.20;;;;;;6131313;23;20940;-83
2021/08/08 00:50:11;;;;;;;1.30;1.20;;;19.20;97.70;;;;;;6159277;23;20460;-82
2021/08/08 00:52:39;;;;;;;2.60;1.20;;;19.20;97.60;;;;;;6157492;23;20426;-82
2021/08/08 00:55:07;;;;;;;3.53;1.43;;;19.30;97.40;;;;;;6158741;23;20411;-83
2021/08/08 00:57:34;;;;;;;2.50;1.73;;;19.20;97.50;;;;;;6158202;23;20425;-84
2021/08/08 01:00:06;;;;;;;6.10;1.70;;;19.10;97.60;;;;;;6156533;23;20393;-83
2021/08/08 01:02:36;;;;;;;3.70;1.80;;;19.30;97.40;;;;;;6158480;23;20443;-82
2021/08/08 01:05:08;;;;;;;1.80;1.67;;;19.20;97.40;;;;;;6159607;23;20786;-82
2021/08/08 01:08:16;;;;;;;1.63;1.53;;;19.30;97.40;;;;;;6157684;23;20430;-82
2021/08/08 01:10:43;;;;;;;1.60;1.50;;;19.20;97.20;;;;;;6014791;23;20425;-85
2021/08/08 01:13:11;;;;;;;2.27;1.77;;;19.00;97.80;;;;;;6133217;23;20941;-82
2021/08/08 01:15:40;;;;;;;2.07;1.70;;;19.20;97.40;;;;;;6131971;23;20417;-84
2021/08/08 01:18:09;;;;;;;2.20;1.70;;;19.10;97.40;;;;;;6157484;23;20419;-83
2021/08/08 01:20:37;;;;;;;2.50;1.80;;;19.00;97.70;;;;;;6158494;23;20423;-80
2021/08/08 01:23:05;;;;;;;3.50;2.10;;;18.80;97.70;;;;;;6156366;23;20435;-82
2021/08/08 01:25:31;;;;;;;4.40;1.63;;;18.90;97.90;;;;;;6158353;23;20770;-82
2021/08/08 01:28:01;;;;;;;3.63;1.73;;;19.10;96.90;;;;;;6133392;23;20417;-82
2021/08/08 01:30:28;;;;;;;4.57;1.93;;;19.00;96.70;;;;;;6133444;23;20468;-84
2021/08/08 01:33:08;;;;;;;2.90;1.57;;;18.90;97.00;;;;;;6158468;23;20425;-82
2021/08/08 01:35:36;;;;;;;1.77;1.47;;;18.90;97.10;;;;;;6159670;23;20398;-82
2021/08/08 01:38:03;;;;;;;2.77;2.00;;;19.10;96.80;;;;;;6159536;23;20415;-83
2021/08/08 01:40:37;;;;;;;3.50;1.50;;;19.40;95.50;;;;;;6159699;23;20439;-83
2021/08/08 01:43:09;;;;;;;1.87;1.63;;;19.40;95.30;;;;;;6160155;23;20437;-83
2021/08/08 01:45:40;;;;;;;1.83;1.63;;;19.20;95.40;;;;;;6158782;23;20394;-81
2021/08/08 01:48:11;;;;;;;4.00;1.60;;;19.10;95.30;;;;;;6158672;23;20413;-82
2021/08/08 01:50:38;;;;;;;4.03;1.80;;;18.90;95.90;;;;;;6162480;23;20417;-83
2021/08/08 01:53:05;;;;;;;4.90;2.20;;;18.90;95.70;;;;;;6170490;23;20414;-82
2021/08/08 01:55:33;;;;;;;3.53;1.67;;;18.80;95.70;;;;;;6133088;23;20415;-81
2021/08/08 01:58:00;;;;;;;1.63;1.33;;;18.70;95.80;;;;;;6160273;23;20898;-79
2021/08/08 02:00:27;;;;;;;1.77;1.33;;;18.80;96.00;;;;;;6157591;23;20448;-81
2021/08/08 02:02:56;;;;;;;4.90;1.70;;;18.80;95.80;;;;;;6157384;23;20541;-81
2021/08/08 02:05:25;;;;;;;2.97;1.57;;;18.80;95.90;;;;;;6131514;23;20407;-82
2021/08/08 02:07:51;;;;;;;4.73;2.00;;;18.80;95.80;;;;;;6130106;23;20506;-82
2021/08/08 02:10:19;;;;;;;1.87;1.50;;;18.70;95.80;;;;;;6158930;23;20418;-81
2021/08/08 02:12:46;;;;;;;5.90;1.70;;;18.70;95.90;;;;;;6157641;23;20439;-81
2021/08/08 02:15:13;;;;;;;2.17;1.40;;;18.70;96.00;;;;;;6158255;23;20422;-80
2021/08/08 02:17:42;;;;;;;6.50;1.90;;;18.70;96.10;;;;;;6159529;23;20419;-83
2021/08/08 02:20:12;;;;;;;4.43;2.20;;;18.70;96.10;;;;;;6158238;23;20411;-80
2021/08/08 02:22:38;;;;;;;4.10;1.50;;;18.70;96.00;;;;;;6158296;23;20443;-82
2021/08/08 02:25:06;;;;;;;3.00;1.80;;;18.70;95.90;;;;;;6131130;23;20418;-81
2021/08/08 02:27:33;;;;;;;1.60;1.50;;;18.60;96.00;;;;;;6158667;23;20411;-82
2021/08/08 02:30:00;;;;;;;3.33;1.70;;;18.70;95.90;;;;;;6133190;23;20429;-82
2021/08/08 02:32:27;;;;;;;3.07;1.70;;;18.70;95.70;;;;;;6158373;23;20419;-82
2021/08/08 02:34:54;;;;;;;2.33;1.40;;;18.60;95.90;;;;;;6158791;23;20506;-82
2021/08/08 02:37:20;;;;;;;2.20;1.60;;;18.60;95.90;;;;;;6156636;23;20391;-82
2021/08/08 02:39:47;;;;;;;1.57;1.40;;;18.60;96.00;;;;;;6158291;23;20414;-81
2021/08/08 02:42:14;;;;;;;2.53;1.63;;;18.70;95.70;;;;;;6157810;23;20431;-80
2021/08/08 02:44:40;;;;;;;2.30;2.07;;;18.60;95.90;;;;;;6156549;23;20957;-83
2021/08/08 02:47:07;;;;;;;2.80;1.63;;;18.50;96.00;;;;;;6157317;23;20451;-83
2021/08/08 02:49:34;;;;;;;2.83;1.90;;;18.60;96.00;;;;;;6157624;23;20422;-82
2021/08/08 02:52:01;;;;;;;3.50;1.80;;;18.50;95.80;;;;;;6130535;23;20427;-82
2021/08/08 02:54:27;;;;;;;3.73;1.97;;;18.50;95.80;;;;;;6132035;23;20418;-84
2021/08/08 02:56:54;;;;;;;3.67;1.90;;;18.40;95.70;;;;;;6156950;23;20410;-83
2021/08/08 02:59:20;;;;;;;2.93;1.60;;;18.40;95.60;;;;;;6131174;23;20441;-82
2021/08/08 03:01:47;;;;;;;2.20;1.50;;;18.40;95.70;;;;;;6159486;23;20434;-83
2021/08/08 03:04:14;;;;;;;1.53;1.43;;;18.40;95.70;;;;;;6165916;23;20801;-84
2021/08/08 03:06:47;;;;;;;5.20;1.60;;;18.60;95.50;;;;;;6138214;23;20407;-82
2021/08/08 03:09:14;;;;;;;2.20;1.80;;;18.50;95.60;;;;;;6167167;23;20383;-81
2021/08/08 03:11:45;;;;;;;2.23;1.60;;;18.50;95.60;;;;;;6163594;23;20777;-81
2021/08/08 03:14:17;;;;;;;3.77;1.83;;;18.80;95.10;;;;;;6133570;23;20407;-82
2021/08/08 03:16:45;;;;;;;4.47;2.00;;;18.60;95.30;;;;;;6132919;23;20437;-83
2021/08/08 03:19:13;;;;;;;3.03;1.93;;;18.80;94.90;;;;;;6135728;23;20411;-83
2021/08/08 03:21:40;;;;;;;2.30;1.87;;;18.50;95.20;;;;;;6168721;23;20531;-84
2021/08/08 03:24:07;;;;;;;3.13;2.00;;;18.30;95.80;;;;;;6173055;23;20445;-82
2021/08/08 03:26:33;;;;;;;2.90;1.77;;;18.40;96.10;;;;;;6164472;23;20886;-84
2021/08/08 03:29:00;;;;;;;5.80;2.20;;;18.50;95.90;;;;;;6162930;23;20414;-81
2021/08/08 03:31:27;;;;;;;5.30;2.10;;;18.30;95.60;;;;;;6175530;23;20422;-84
2021/08/08 03:33:54;;;;;;;5.47;2.20;;;18.20;95.80;;;;;;6148273;23;20417;-82
2021/08/08 03:36:22;;;;;;;2.93;1.97;;;18.20;95.90;;;;;;6140389;23;20419;-81
2021/08/08 03:38:49;;;;;;;3.17;1.67;;;18.20;95.80;;;;;;6166340;23;20414;-82
2021/08/08 03:41:16;;;;;;;1.93;1.77;;;18.20;95.90;;;;;;6137195;23;20430;-83
2021/08/08 03:43:43;;;;;;;4.20;1.73;;;18.20;95.90;;;;;;6160179;23;20432;-80
2021/08/08 03:46:10;;;;;;;2.03;1.60;;;18.20;95.90;;;;;;6137514;23;20403;-81
2021/08/08 03:48:37;;;;;;;3.53;2.13;;;18.70;95.30;;;;;;6163084;23;20418;-83
2021/08/08 03:51:04;;;;;;;2.47;1.80;;;18.70;95.10;;;;;;6169403;23;20521;-83
2021/08/08 03:53:31;;;;;;;3.00;2.33;;;18.70;95.20;;;;;;6136440;23;20425;-83
2021/08/08 03:55:57;;;;;;;4.60;2.23;;;18.50;95.50;;;;;;6162266;23;20415;-80
2021/08/08 03:58:29;;;;;;;4.33;2.53;;;18.80;95.20;;;;;;6133157;23;20431;-83
2021/08/08 04:01:01;;;;;;;6.03;2.00;;;18.90;94.90;;;;;;6134450;23;20427;-79
2021/08/08 04:03:31;;;;;;;4.83;2.27;;;18.60;95.10;;;;;;6164454;23;20439;-81
2021/08/08 04:05:58;;;;;;;3.70;2.27;;;18.40;95.80;;;;;;6161115;23;20399;-81
2021/08/08 04:08:25;;;;;;;9.10;2.23;;;18.30;96.20;;;;;;6167166;23;20505;-81
2021/08/08 04:10:52;;;;;;;4.37;2.07;;;18.20;96.20;;;;;;6179424;23;20423;-82
2021/08/08 04:13:19;;;;;;;2.73;2.20;;;18.10;96.50;;;;;;6180312;23;20438;-81
2021/08/08 04:15:45;;;;;;;5.20;1.90;;;18.10;96.60;;;;;;6154594;23;20421;-85
2021/08/08 04:18:13;;;;;;;6.40;2.20;;;18.10;96.50;;;;;;6154197;23;20502;-83
2021/08/08 04:20:40;;;;;;;8.00;2.20;;;18.00;96.50;;;;;;6181043;23;20379;-85
2021/08/08 04:23:10;;;;;;;7.93;2.10;;;18.00;96.50;;;;;;6180596;23;20470;-84
2021/08/08 04:25:38;;;;;;;3.70;2.17;;;18.00;96.50;;;;;;6144036;23;21039;-83
2021/08/08 04:28:06;;;;;;;5.40;2.43;;;18.10;96.50;;;;;;6136104;23;20483;-83
2021/08/08 04:30:34;;;;;;;3.93;2.10;;;18.20;96.20;;;;;;6160840;23;20599;-85
2021/08/08 04:33:02;;;;;;;3.80;2.23;;;18.40;96.20;;;;;;6161130;23;20418;-82
2021/08/08 04:35:30;;;;;;;7.10;2.30;;;18.70;95.50;;;;;;6160239;23;20921;-82
2021/08/08 04:37:56;;;;;;;6.70;2.40;;;18.70;95.20;;;;;;6159124;23;20414;-82
2021/08/08 04:40:24;;;;;;;3.90;2.20;;;18.70;95.50;;;;;;6161711;23;20410;-81
2021/08/08 04:42:51;;;;;;;4.63;2.47;;;18.90;95.10;;;;;;6158655;23;20435;-82
2021/08/08 04:45:20;;;;;;;3.07;2.47;;;19.00;94.70;;;;;;6158514;23;20443;-83
2021/08/08 04:47:48;;;;;;;3.93;2.30;;;19.00;94.80;;;;;;6158957;23;20908;-80
2021/08/08 04:50:15;;;;;;;6.67;2.67;;;18.90;94.80;;;;;;6134924;23;20415;-82
2021/08/08 04:52:41;;;;;;;3.30;2.20;;;18.80;95.00;;;;;;6156837;23;20429;-82
2021/08/08 04:55:09;;;;;;;4.57;2.43;;;18.80;95.10;;;;;;6158226;23;20909;-82
2021/08/08 04:57:35;;;;;;;4.23;2.37;;;18.80;95.20;;;;;;6133201;23;20800;-84
2021/08/08 05:00:04;;;;;;;7.67;2.30;;;18.70;95.20;;;;;;6133536;23;20441;-85
2021/08/08 05:02:30;;;;;;;3.20;2.00;;;18.70;95.70;;;;;;6158703;23;20440;-82
2021/08/08 05:04:57;;;;;;;3.30;2.43;;;18.70;95.40;;;;;;6141081;23;20435;-83
2021/08/08 05:07:24;;;;;;;4.70;2.27;;;18.80;95.60;;;;;;6139838;23;21194;-80
2021/08/08 05:09:51;;;;;;;8.77;3.17;;;18.90;95.30;;;;;;6140147;23;20465;-79
2021/08/08 05:12:18;;;;;;;4.20;2.20;;;18.90;95.10;;;;;;6163521;23;20880;-79
2021/08/08 05:14:44;;;;;;;5.60;1.93;;;18.70;95.50;;;;;;6142662;23;20407;-81
2021/08/08 05:17:11;;;;;;;2.50;2.30;;;18.70;95.80;;;;;;6149352;23;20729;-81
2021/08/08 05:19:38;;;;;;;6.77;2.37;;;18.90;95.50;;;;;;6175827;23;20485;-82
2021/08/08 05:22:05;;;;;;;3.00;2.30;;;18.90;95.40;;;;;;6149381;23;20430;-83
2021/08/08 05:24:32;;;;;;;6.30;2.90;;;19.00;95.50;;;;;;6175533;23;20457;-84
2021/08/08 05:26:58;;;;;;;6.47;2.20;;;18.80;95.60;;;;;;6174777;23;20509;-84
2021/08/08 05:29:25;;;;;;;3.83;2.13;;;18.90;95.70;;;;;;6174924;23;20910;-82
2021/08/08 05:31:52;;;;;;;5.63;2.50;;;18.90;95.70;;;;;;6146756;23;20477;-82
2021/08/08 05:34:18;;;;;;;5.83;2.63;;;18.80;95.70;;;;;;6149552;23;20403;-82
2021/08/08 05:36:45;;;;;;;6.30;2.13;;;18.90;95.80;;;;;;6146719;23;20502;-80
2021/08/08 05:39:12;;;;;;;2.80;2.10;;;18.90;95.80;;;;;;6147432;23;20399;-83
2021/08/08 05:41:38;;;;;;;4.70;2.47;;;18.90;95.60;;;;;;6146932;23;20430;-83
2021/08/08 05:44:05;;;;;;;3.10;1.63;;;18.90;95.50;;;;;;6146255;23;20973;-80
2021/08/08 05:46:32;;;;;;;5.20;3.73;;;18.80;95.80;;;;;;6169939;23;20407;-83
2021/08/08 05:48:59;;;;;;;3.40;2.37;;;18.80;96.00;;;;;;6148061;23;20403;-82
2021/08/08 05:51:25;;;;;;;6.60;2.23;;;19.00;95.60;;;;;;6176255;23;20412;-84
2021/08/08 05:53:54;;;;;;;5.77;2.33;;;18.70;96.30;;;;;;6178354;23;20419;-85
2021/08/08 05:56:21;;;;;;;4.30;1.90;;;18.50;96.30;;;;;;6151991;23;20403;-84
2021/08/08 05:58:48;;;;;;;2.77;2.13;;;18.40;96.40;;;;;;6168504;23;20399;-84
2021/08/08 06:01:14;;;;;;;5.87;2.50;;;18.70;96.10;;;;;;6161185;23;20430;-84
2021/08/08 06:03:41;;;;;;;6.27;2.30;;;18.70;95.90;;;;;;6161907;23;20430;-84
2021/08/08 06:06:10;;;;;;;3.83;1.97;;;18.80;95.70;;;;;;6165612;23;20387;-83
2021/08/08 06:08:37;;;;;;;4.57;2.00;;;18.90;95.30;;;;;;6172846;23;20426;-82
2021/08/08 06:11:04;;;;;;;2.53;2.07;;;19.40;94.30;;;;;;6173134;23;20429;-83
2021/08/08 06:13:31;;;;;;;3.60;2.20;;;19.50;93.70;;;;;;6171698;23;20410;-84
2021/08/08 06:15:58;;;;;;;3.23;1.90;;;19.20;93.60;;;;;;6145794;23;20403;-83
2021/08/08 06:18:25;;;;;;;4.60;2.30;;;19.10;94.00;;;;;;6171449;23;20403;-81
2021/08/08 06:20:51;;;;;;;2.93;2.07;;;19.00;94.60;;;;;;6172931;23;20490;-83
2021/08/08 06:23:18;;;;;;;4.83;1.90;;;19.00;94.20;;;;;;6171342;23;20478;-82
2021/08/08 06:25:44;;;;;;;2.37;1.80;;;19.00;94.50;;;;;;6170642;23;20474;-81
2021/08/08 06:28:11;;;;;;;2.20;1.90;;;19.40;93.70;;;;;;6140167;23;20462;-82
2021/08/08 06:30:38;;;;;;;4.27;1.97;;;19.50;93.30;;;;;;6147729;23;20458;-80
2021/08/08 06:33:05;;;;;;;4.30;2.20;;;19.70;93.00;;;;;;6172760;23;20410;-83
2021/08/08 06:35:32;;;;;;;2.43;1.67;;;20.00;92.50;;;;;;6171622;23;20425;-82
2021/08/08 06:37:59;;;;;;;5.27;1.97;;;20.10;92.00;;;;;;6166943;23;20862;-82
2021/08/08 06:40:26;;;;;;;8.50;2.33;;;19.70;92.40;;;;;;6162688;23;20407;-81
2021/08/08 06:42:53;;;;;;;5.43;2.43;;;19.40;92.90;;;;;;6173500;23;20423;-82
2021/08/08 06:45:19;;;;;;;4.20;1.77;;;19.20;93.80;;;;;;6173930;23;20429;-81
2021/08/08 06:47:46;;;;;;;2.83;2.27;;;19.40;93.20;;;;;;6180036;23;20454;-81
2021/08/08 06:50:14;;;;;;;8.17;2.37;;;19.70;92.60;;;;;;6176287;23;20494;-80
2021/08/08 06:52:41;;;;;;;2.80;1.90;;;19.70;92.40;;;;;;6142332;23;20450;-80
2021/08/08 06:55:08;;;;;;;2.83;1.93;;;19.40;93.00;;;;;;6157172;23;20478;-83
2021/08/08 06:57:35;;;;;;;4.60;2.10;;;19.80;92.60;;;;;;6182223;23;20463;-82
2021/08/08 07:00:02;;;;;;;2.13;1.80;;;19.70;92.10;;;;;;6181493;23;20475;-84
2021/08/08 07:02:29;;;;;;;3.83;1.67;;;19.30;92.50;;;;;;6182625;23;20415;-84
2021/08/08 07:04:56;;;;;;;4.23;2.13;;;19.10;92.90;;;;;;6182172;23;20435;-85
2021/08/08 07:07:22;;;;;;;4.23;1.87;;;18.90;93.20;;;;;;6182306;23;20398;-86
2021/08/08 07:09:49;;;;;;;3.20;2.10;;;18.80;93.50;;;;;;6182259;23;20450;-86
2021/08/08 07:12:16;;;;;;;3.10;1.60;;;18.90;93.80;;;;;;6181195;23;20410;-84
2021/08/08 07:14:42;;;;;;;4.43;2.90;;;18.90;93.70;;;;;;6156803;23;20402;-85
2021/08/08 07:17:09;;;;;;;4.07;2.10;;;18.90;93.60;;;;;;6181919;23;20438;-85
2021/08/08 07:19:36;;;;;;;3.90;2.10;;;19.50;92.70;;;;;;6156721;23;20522;-84
2021/08/08 07:22:03;;;;;;;3.90;2.30;;;19.50;92.10;;;;;;6153788;23;20507;-85
2021/08/08 07:24:30;;;;;;;3.57;1.50;;;19.30;92.80;;;;;;6174637;23;20443;-82
2021/08/08 07:26:57;;;;;;;2.83;1.87;;;19.60;92.80;;;;;;6138303;23;20391;-82
2021/08/08 07:29:24;;;;;;;3.77;1.73;;;19.70;92.00;;;;;;6137240;23;20473;-83
2021/08/08 07:31:54;;;;;;;3.33;2.03;;;19.60;92.10;;;;;;6164416;23;20542;-83
2021/08/08 07:34:21;;;;;;;3.83;2.40;;;20.00;91.70;;;;;;6164500;23;20952;-79
2021/08/08 07:36:49;;;;;;;3.13;1.97;;;19.90;91.60;;;;;;6162581;23;20589;-80
2021/08/08 07:39:15;;;;;;;2.13;1.67;;;19.80;91.90;;;;;;6165662;23;20469;-81
2021/08/08 07:41:44;;;;;;;4.03;2.20;;;20.10;91.80;;;;;;6163533;23;20434;-83
2021/08/08 07:44:10;;;;;;;3.70;2.40;;;20.20;91.20;;;;;;6140495;23;20443;-85
2021/08/08 07:46:37;;;;;;;2.67;1.90;;;20.40;91.00;;;;;;6163839;23;20402;-83
2021/08/08 07:49:04;;;;;;;3.23;1.80;;;20.20;90.80;;;;;;6140485;23;20418;-84
2021/08/08 07:51:31;;;;;;;5.40;2.30;;;20.00;90.90;;;;;;6140257;23;20771;-82
2021/08/08 07:53:59;;;;;;;3.83;1.77;;;20.10;90.50;;;;;;6140685;23;20409;-83
2021/08/08 07:56:25;;;;;;;4.47;2.50;;;20.60;90.40;;;;;;6137036;23;20553;-84
2021/08/08 07:58:52;;;;;;;4.87;2.33;;;21.40;90.00;;;;;;6164614;23;20406;-83
2021/08/08 08:01:19;;;;;;;4.60;1.83;;;23.00;84.70;;;;;;6164128;23;20421;-82
2021/08/08 08:03:46;;;;;;;2.50;1.80;;;23.40;79.40;;;;;;6164582;23;20410;-83
2021/08/08 08:06:12;;;;;;;3.77;2.83;;;22.50;80.40;;;;;;6137979;23;20736;-83
2021/08/08 08:08:40;;;;;;;4.50;2.23;;;22.20;80.60;;;;;;6163880;23;20481;-83
2021/08/08 08:11:09;;;;;;;3.23;1.83;;;21.90;82.90;;;;;;6163239;23;20427;-80
2021/08/08 08:13:39;;;;;;;3.30;2.20;;;22.90;80.90;;;;;;6137666;23;20415;-84
2021/08/08 08:16:06;;;;;;;3.43;1.80;;;24.00;76.30;;;;;;6137792;23;20417;-85
2021/08/08 08:18:33;;;;;;;3.40;1.50;;;24.60;72.00;;;;;;6138248;23;20414;-84
2021/08/08 08:20:59;;;;;;;4.70;1.97;;;26.20;69.10;;;;;;6162603;23;20433;-83
2021/08/08 08:23:26;;;;;;;2.70;1.70;;;27.40;60.80;;;;;;6163903;23;20415;-84
2021/08/08 08:25:53;;;;;;;3.13;1.50;;;27.80;58.20;;;;;;6163939;23;20956;-84
2021/08/08 08:28:20;;;;;;;3.90;1.60;;;28.10;55.70;;;;;;6136623;23;20489;-82
2021/08/08 08:30:47;;;;;;;3.70;2.03;;;27.90;54.20;;;;;;6135921;23;20407;-83
2021/08/08 08:33:13;;;;;;;3.40;1.70;;;26.50;55.80;;;;;;6161530;23;20413;-81
2021/08/08 08:35:41;;;;;;;2.80;1.77;;;27.00;55.00;;;;;;6161802;23;20494;-85
2021/08/08 08:38:08;;;;;;;6.00;1.87;;;27.10;53.30;;;;;;6163027;23;20459;-84
2021/08/08 08:40:36;;;;;;;3.20;1.70;;;26.90;53.80;;;;;;6137685;23;21186;-84
2021/08/08 08:43:07;;;;;;;2.40;1.60;;;26.60;53.40;;;;;;6163179;23;20474;-84
2021/08/08 08:45:39;;;;;;;2.70;1.67;;;25.50;54.80;;;;;;6135600;23;20474;-83
2021/08/08 08:48:08;;;;;;;2.90;1.90;;;25.00;55.50;;;;;;6136642;23;20379;-85
2021/08/08 08:50:36;;;;;;;2.30;1.47;;;23.90;57.80;;;;;;6136384;23;20425;-83
2021/08/08 08:53:03;;;;;;;3.40;1.43;;;22.90;60.30;;;;;;6136062;23;20407;-83
2021/08/08 08:55:30;;;;;;;4.30;1.70;;;23.00;62.60;;;;;;6162663;23;20442;-84
2021/08/08 08:57:58;;;;;;;2.70;1.37;;;23.70;61.20;;;;;;6164034;23;20426;-83
2021/08/08 09:00:25;;;;;;;5.73;1.80;;;25.70;57.80;;;;;;6177594;23;20779;-80
2021/08/08 09:02:51;;;;;;;3.43;1.70;;;26.90;54.60;;;;;;6176557;23;20427;-84
2021/08/08 09:05:21;;;;;;;2.50;1.73;;;26.70;53.90;;;;;;6149293;23;20435;-84
2021/08/08 09:07:48;;;;;;;2.77;1.90;;;26.50;54.30;;;;;;6177026;23;20708;-84
2021/08/08 09:10:15;;;;;;;3.70;1.53;;;25.40;55.20;;;;;;6179913;23;20418;-84
2021/08/08 09:12:54;;;;;;;3.80;1.97;;;24.70;57.20;;;;;;6164737;23;20438;-84
2021/08/08 09:15:48;;;;;;;2.60;1.83;;;23.90;58.30;;;;;;6140380;23;20403;-85
2021/08/08 09:18:20;;;;;;;2.83;1.40;;;22.70;61.10;;;;;;6162263;23;20442;-83
2021/08/08 09:20:49;;;;;;;3.40;1.87;;;22.20;64.00;;;;;;6162801;23;20407;-81
2021/08/08 09:23:16;;;;;;;4.33;1.83;;;22.40;65.00;;;;;;6136613;23;20407;-82
2021/08/08 09:25:52;;;;;;;3.40;1.90;;;22.40;65.10;;;;;;6136806;23;20441;-84
2021/08/08 09:28:26;;;;;;;5.27;2.00;;;22.20;64.90;;;;;;6136890;23;20450;-83
2021/08/08 09:30:56;;;;;;;2.87;1.50;;;21.60;66.40;;;;;;6161118;23;20505;-83
2021/08/08 09:33:23;;;;;;;2.73;1.97;;;22.10;66.20;;;;;;6134288;23;20407;-82
2021/08/08 09:35:53;;;;;;;2.50;2.20;;;22.80;64.60;;;;;;6134513;23;20419;-83
2021/08/08 09:38:21;;;;;;;4.57;1.53;;;22.70;62.40;;;;;;6134850;23;20426;-82
2021/08/08 09:40:59;;;;;;;4.37;1.67;;;22.90;62.20;;;;;;6161052;23;20411;-82
2021/08/08 09:43:30;;;;;;;4.10;1.97;;;23.40;61.80;;;;;;6163374;23;20414;-83
2021/08/08 09:46:25;;;;;;;2.90;1.57;;;24.70;59.90;;;;;;6136769;23;20442;-83
2021/08/08 09:49:12;;;;;;;2.20;1.60;;;26.00;56.20;;;;;;6137985;23;20813;-83
2021/08/08 09:51:51;;;;;;;2.47;1.30;;;26.70;53.80;;;;;;6136092;23;20430;-83
2021/08/08 09:54:19;;;;;;;3.10;1.60;;;27.80;51.90;;;;;;6161699;23;20412;-83
2021/08/08 09:57:00;;;;;;;4.43;1.87;;;27.20;51.90;;;;;;6161012;23;20465;-83
2021/08/08 09:59:28;;;;;;;2.40;1.27;;;26.30;53.10;;;;;;6160993;23;20418;-83
2021/08/08 10:02:00;;;;;;;2.57;1.70;;;25.40;53.70;;;;;;6137173;23;20743;-83
2021/08/08 10:04:29;;;;;;;2.63;1.20;;;24.10;56.50;;;;;;6137018;23;20403;-83
2021/08/08 10:06:57;;;;;;;2.80;1.50;;;23.70;58.10;;;;;;6136629;23;20425;-85
2021/08/08 10:09:28;;;;;;;5.20;1.87;;;23.30;58.90;;;;;;6134776;23;20702;-83
2021/08/08 10:11:58;;;;;;;1.60;1.50;;;23.10;59.60;;;;;;6135253;23;20427;-83
2021/08/08 10:14:25;;;;;;;8.10;2.03;;;23.60;60.20;;;;;;6160912;23;20434;-79
2021/08/08 10:16:52;;;;;;;4.20;2.07;;;23.40;59.70;;;;;;6159050;23;20902;-82
2021/08/08 10:19:19;;;;;;;4.90;1.90;;;22.70;61.60;;;;;;6135249;23;20737;-83
2021/08/08 10:21:47;;;;;;;6.37;1.50;;;22.30;63.60;;;;;;6135125;23;20477;-82
2021/08/08 10:24:17;;;;;;;2.43;1.30;;;21.80;65.30;;;;;;6160296;23;20418;-84
2021/08/08 10:26:44;;;;;;;2.67;1.40;;;22.00;66.80;;;;;;6133067;23;21194;-82
2021/08/08 10:29:12;;;;;;;3.27;1.50;;;22.20;65.90;;;;;;6135411;23;20418;-82
2021/08/08 10:31:44;;;;;;;4.47;1.97;;;22.80;65.80;;;;;;6133953;23;20431;-81
2021/08/08 10:34:11;;;;;;;2.57;1.47;;;23.80;63.50;;;;;;6137158;23;20410;-83
2021/08/08 10:36:38;;;;;;;2.60;1.90;;;23.90;61.80;;;;;;6166190;23;20482;-85
2021/08/08 10:39:11;;;;;;;3.50;1.80;;;24.40;60.00;;;;;;6163995;23;20430;-83
2021/08/08 10:41:41;;;;;;;2.77;1.43;;;24.00;59.20;;;;;;6133901;23;20930;-81
2021/08/08 10:44:13;;;;;;;3.40;1.57;;;23.70;59.80;;;;;;6134184;23;20407;-82
2021/08/08 10:46:51;;;;;;;4.40;1.60;;;23.00;61.90;;;;;;6159867;23;21079;-83
2021/08/08 10:49:28;;;;;;;5.70;1.60;;;22.60;63.20;;;;;;6133824;23;20968;-81
2021/08/08 10:52:05;;;;;;;3.87;1.73;;;22.70;63.20;;;;;;6133186;23;20439;-82
2021/08/08 10:54:46;;;;;;;2.70;1.50;;;22.30;64.10;;;;;;6135796;23;20445;-81
2021/08/08 10:57:15;;;;;;;3.07;1.30;;;22.20;65.20;;;;;;6134304;23;20421;-84
2021/08/08 10:59:48;;;;;;;2.80;1.50;;;22.20;65.50;;;;;;6133214;23;20389;-83
2021/08/08 11:02:36;;;;;;;2.87;1.43;;;22.20;64.80;;;;;;6160035;23;20423;-83
2021/08/08 11:05:11;;;;;;;4.57;1.30;;;22.00;66.20;;;;;;6133739;23;20498;-83
2021/08/08 11:07:40;;;;;;;2.87;1.63;;;21.90;66.60;;;;;;6160886;23;20469;-83
2021/08/08 11:10:09;;;;;;;3.40;1.60;;;21.90;67.70;;;;;;6161718;23;20411;-82
2021/08/08 11:12:40;;;;;;;1.90;1.10;;;22.00;67.30;;;;;;6162003;23;20525;-84
2021/08/08 11:15:10;;;;;;;3.87;1.43;;;21.90;67.70;;;;;;6135711;23;20395;-84
2021/08/08 11:17:40;;;;;;;3.17;1.40;;;22.00;68.00;;;;;;6134828;23;20406;-85
2021/08/08 11:20:08;;;;;;;2.97;1.50;;;22.60;66.90;;;;;;6162708;23;20395;-84
2021/08/08 11:22:35;;;;;;;2.30;1.30;;;23.10;64.80;;;;;;6134860;23;20426;-86
2021/08/08 11:25:14;;;;;;;1.60;1.47;;;23.30;64.10;;;;;;6162407;23;20443;-83
2021/08/08 11:27:44;;;;;;;2.90;1.60;;;23.60;63.50;;;;;;6136964;23;20395;-84
2021/08/08 11:30:14;;;;;;;2.40;1.50;;;24.00;61.70;;;;;;6162940;23;20462;-85
2021/08/08 11:32:41;;;;;;;1.60;1.23;;;24.20;60.90;;;;;;6163591;23;20419;-83
2021/08/08 11:35:15;;;;;;;4.33;1.40;;;24.00;62.20;;;;;;6166478;23;20417;-84
2021/08/08 11:37:48;;;;;;;2.17;1.50;;;23.80;60.90;;;;;;6163754;23;20391;-82
2021/08/08 11:40:22;;;;;;;3.40;1.40;;;23.10;62.70;;;;;;6154359;23;20908;-86
2021/08/08 11:42:57;;;;;;;4.37;1.27;;;22.70;65.10;;;;;;6181962;23;20422;-86
2021/08/08 11:45:49;;;;;;;2.17;1.20;;;22.80;64.00;;;;;;6166504;23;20675;-82
2021/08/08 11:48:19;;;;;;;2.00;1.30;;;22.80;63.80;;;;;;6159601;23;20451;-83
2021/08/08 11:51:00;;;;;;;3.23;1.90;;;22.70;65.20;;;;;;6160590;23;20399;-84
2021/08/08 11:53:36;;;;;;;4.10;1.83;;;22.40;66.00;;;;;;6134116;23;20391;-81
2021/08/08 11:56:22;;;;;;;3.73;1.47;;;22.80;65.80;;;;;;6159863;23;20453;-84
2021/08/08 11:58:53;;;;;;;1.57;1.30;;;23.70;63.50;;;;;;6165995;23;20411;-84
2021/08/08 12:01:23;;;;;;;2.17;1.47;;;23.60;63.20;;;;;;6169493;23;20509;-81
2021/08/08 12:04:03;;;;;;;1.63;1.53;;;23.80;63.10;;;;;;6174789;23;20391;-85
2021/08/08 12:06:31;;;;;;;2.53;1.50;;;24.30;61.80;;;;;;6124917;23;20866;-85
2021/08/08 12:08:58;;;;;;;2.17;1.67;;;25.40;58.50;;;;;;6177083;23;20429;-85
2021/08/08 12:11:26;;;;;;;1.97;1.20;;;25.10;59.10;;;;;;6150209;23;20434;-84
2021/08/08 12:14:01;;;;;;;2.03;1.70;;;25.00;59.10;;;;;;6167257;23;20435;-83
2021/08/08 12:16:34;;;;;;;5.63;1.80;;;24.80;59.10;;;;;;6162968;23;20410;-84
2021/08/08 12:19:07;;;;;;;2.00;1.40;;;24.80;59.40;;;;;;6164380;23;20412;-84
2021/08/08 12:21:39;;;;;;;4.70;1.83;;;24.50;60.00;;;;;;6166394;23;20427;-84
2021/08/08 12:24:11;;;;;;;2.47;1.37;;;24.50;59.90;;;;;;6170574;23;20399;-85
2021/08/08 12:26:41;;;;;;;2.27;1.60;;;24.20;60.00;;;;;;6170337;23;20450;-84
2021/08/08 12:29:08;;;;;;;2.13;1.47;;;23.60;61.20;;;;;;6142967;23;20387;-84
2021/08/08 12:31:40;;;;;;;1.97;1.53;;;23.20;63.20;;;;;;6163970;23;20768;-83
2021/08/08 12:34:09;;;;;;;3.03;1.30;;;23.00;62.70;;;;;;6163415;23;20383;-84
2021/08/08 12:36:41;;;;;;;2.80;1.53;;;22.90;63.00;;;;;;6162264;23;20418;-81
2021/08/08 12:39:10;;;;;;;2.50;1.37;;;22.80;63.80;;;;;;6136518;23;20398;-83
2021/08/08 12:41:39;;;;;;;5.10;1.53;;;22.70;62.70;;;;;;6136866;23;20441;-82
2021/08/08 12:44:08;;;;;;;2.73;1.50;;;23.00;62.10;;;;;;6148803;23;20440;-85
2021/08/08 12:46:39;;;;;;;3.43;1.73;;;22.90;62.50;;;;;;6172456;23;20462;-84
2021/08/08 12:49:11;;;;;;;2.43;1.30;;;23.10;63.30;;;;;;6166187;23;20419;-85
2021/08/08 12:51:40;;;;;;;1.87;1.57;;;23.50;63.90;;;;;;6138926;23;20427;-84
2021/08/08 12:54:07;;;;;;;1.80;1.40;;;23.60;63.10;;;;;;6138625;23;20751;-83
2021/08/08 12:56:34;;;;;;;1.90;1.27;;;23.90;61.80;;;;;;6163687;23;20454;-83